Terminal Aerodrome Forecast
Issued by NWS Sioux Falls, SD

Home | Current Version | Previous Version | Graphics & Text | Print | Product List | Glossary Off
Versions: 1 2 3 4 5 6 7 8 9 10 11 12 13

000
FTUS43 KFSD 210527
TAFSUX
TAF
KSUX 210527Z 2106/2206 09004KT P6SM SKC
     FM211400 12009KT P6SM BKN030
     FM211800 14012KT P6SM BKN030
     FM212000 16014G21KT P6SM SCT040
     FM220000 15010KT P6SM SCT050
     FM220200 15012KT P6SM SKC WS015/17040KT=

USA.gov is the U.S. government's official web portal to all federal, state and local government web resources and services.